Argonia, KS

5:08 PM CDT on July 31, 2014 (GMT -0500)
Caldwell Hess (KKSCALDW8) Elev 1165 ft | 37.04 °N, 97.62 °W | Change Station

Current weather conditions updated 1 minute ago

Scattered Clouds
Scattered Clouds
81.0 °F
Feels Like 82 °F
N
0.0
Wind Variable Wind from SSE
Gusts 2.0 mph

Tomorrow is forecast to be Warmer than today.

Today
High -- | Low -- °F
--% Chance of Precip.
Yesterday
High -- | Low -- °F
Precip. -- in
6:34 AM 8:39 PM
Waxing Crescent, 21% visible
Pressure 30.06 in
Visibility 10.0 miles
Clouds Few 6000 ft
Scattered Clouds 10000 ft
Scattered Clouds 15000 ft
Heat Index 82 °F
Dew Point 61 °F
Humidity 50%
Rainfall 0.00 in
Snow Depth Not available.
UV 3.5 out of 12
Pollen 6.40 out of 12
Air Quality Not available.
Flu Activity Not available.
METAR KICT 312153Z 30004KT 10SM FEW060 SCT100 SCT150 29/12 A3006

More Conditions Fewer Conditions

Pressure 30.06 in
Visibility 10.0 miles
Clouds Few 6000 ft
Scattered Clouds 10000 ft
Scattered Clouds 15000 ft
Heat Index 82 °F
Dew Point 61 °F
Humidity 50%
Rainfall 0.00 in
Snow Depth Not available.
UV 3.5 out of 12
Pollen 6.40 out of 12
Air Quality Not available.
Flu Activity Not available.
METAR KICT 312153Z 30004KT 10SM FEW060 SCT100 SCT150 29/12 A3006

More Conditions Fewer Conditions

10-Day Weather Forecast

Almanac

Astronomy

Jul. 31, 2014 Rise Set
Actual Time 6:34 AM CDT 8:39 PM CDT
Civil Twilight 6:05 AM CDT 9:08 PM CDT
Nautical Twilight 5:30 AM CDT 9:43 PM CDT
Astronomical Twilight 4:52 AM CDT 10:21 PM CDT
Moon 10:56 AM CDT 11:00 PM CDT
Length of Visible Light 15h 02m
Length of Day
14h 04m
Tomorrow will be 1m 46s shorter.
Waxing Crescent, 21% of the Moon is Illuminated
Today
Waxing Crescent
Aug 3
First Quarter
Aug 10
Full
Aug 17
Last Quarter
Aug 25
New

Today's Extremes

State Highs State Lows

Community

WunderPhotos

Upload Photos

1,739,457 photos uploaded!

Nearby

Snow Depth

Station Depth Elevation
No new snow has been reported.

Earthquake Activity

City Distance Mag. Time & Date
Yale, Oklahoma 92 miles 3.2 5:19 PM CDT
2014-07-27
Medford, Oklahoma 32 miles 2.9 3:39 PM CDT
2014-07-27
Perry, Oklahoma 69 miles 2.8 4:28 AM CDT
2014-07-27
Caldwell, Kansas 10 miles 3.4 5:57 AM CDT
2014-07-26
Minimum magnitude displayed is 2.5.

Coastal Water Temperatures

Place Temperature
No Stations Reporting

Nearby Weather Stations

Station Location Temp. Heat Index Dew Point Humidity Wind Precip. Elev Updated Type
MesoWest PERTH , Mayfield, KS 80 °F 78 °F - - North  at  - 0.00 in / hr 1228 ft 3:50 PM CDT MADIS
Caldwell Hess, Caldwell, KS 81.0 °F 82 °F 61 °F 50% SSE  at  0.0 mph 0.00 in / hr 1165 ft 5:06 PM CDT Normal
KanOkla, Caldwell, KS 85.9 °F 85 °F 59 °F 40% NNW  at  1.0 mph 0.00 in / hr 1168 ft 5:05 PM CDT Normal
MesoWest RNFROW , Caldwell, KS 79 °F 77 °F - - North  at  - 0.00 in / hr 1240 ft 3:40 PM CDT MADIS
Dove Haven, Clearwater, KS 81.2 °F 81 °F 55 °F 41% NE  at  7.0 mph 0.00 in / hr 1394 ft 5:05 PM CDT Normal

Show More Stations Show Fewer Stations